createdAt,value
2019-05-25T00:00:02.076Z,1000.36
2019-05-25T00:05:01.258Z,1000.3
2019-05-25T00:10:01.414Z,1000.31
2019-05-25T00:15:01.577Z,1000.3
2019-05-25T00:20:01.930Z,1000.37
2019-05-25T00:25:02.100Z,1000.39
2019-05-25T00:30:01.232Z,1000.37
2019-05-25T00:35:01.347Z,1000.29
2019-05-25T00:40:01.486Z,1000.36
2019-05-25T00:45:01.834Z,1000.3
2019-05-25T00:50:01.987Z,1000.33
2019-05-25T00:55:01.093Z,1000.37
2019-05-25T01:00:01.352Z,1000.41
2019-05-25T01:05:01.585Z,1000.39
2019-05-25T01:10:01.797Z,1000.35
2019-05-25T01:15:02.087Z,1000.39
2019-05-25T01:20:01.235Z,1000.45
2019-05-25T01:25:01.570Z,1000.49
2019-05-25T01:30:01.811Z,1000.41
2019-05-25T01:35:01.848Z,1000.46
2019-05-25T01:40:01.999Z,1000.45
2019-05-25T01:45:01.159Z,1000.42
2019-05-25T01:50:01.281Z,1000.41
2019-05-25T01:55:01.417Z,1000.39
2019-05-25T02:00:01.557Z,1000.37
2019-05-25T02:05:01.746Z,1000.4
2019-05-25T02:10:01.879Z,1000.34
2019-05-25T02:15:02.050Z,1000.29
2019-05-25T02:20:01.222Z,1000.33
2019-05-25T02:25:16.407Z,1000.35
2019-05-25T02:30:02.246Z,1000.36
2019-05-25T02:35:01.452Z,1000.4
2019-05-25T02:40:01.364Z,1000.38
2019-05-25T02:45:01.570Z,1000.47
2019-05-25T02:50:01.716Z,1000.51
2019-05-25T02:55:01.227Z,1000.53
2019-05-25T03:00:01.358Z,1000.51
2019-05-25T03:05:01.539Z,1000.53
2019-05-25T03:10:01.646Z,1000.59
2019-05-25T03:15:01.907Z,1000.76
2019-05-25T03:20:02.096Z,1000.8
2019-05-25T03:25:01.230Z,1000.84
2019-05-25T03:30:01.365Z,1000.88
2019-05-25T03:35:01.516Z,1000.82
2019-05-25T03:40:01.685Z,1000.92
2019-05-25T03:45:01.814Z,1000.93
2019-05-25T03:50:01.970Z,1000.89
2019-05-25T03:55:01.131Z,1000.9
2019-05-25T04:00:01.281Z,1000.95
2019-05-25T04:05:01.462Z,1000.96
2019-05-25T04:10:02.004Z,1001.04
2019-05-25T04:15:01.160Z,1001.06
2019-05-25T04:20:01.323Z,1001.14
2019-05-25T04:25:01.458Z,1001.18
2019-05-25T04:30:01.594Z,1001.3
2019-05-25T04:35:01.887Z,1001.27
2019-05-25T04:40:01.562Z,1001.38
2019-05-25T04:45:01.699Z,1001.41
2019-05-25T04:50:01.838Z,1001.43
2019-05-25T04:55:01.249Z,1001.45
2019-05-25T05:00:01.389Z,1001.5
2019-05-25T05:05:01.550Z,1001.53
2019-05-25T05:10:03.097Z,1001.47
2019-05-25T05:15:01.566Z,1001.5
2019-05-25T05:20:01.734Z,1001.51
2019-05-25T05:25:01.996Z,1001.51
2019-05-25T05:30:01.132Z,1001.47
2019-05-25T05:35:01.285Z,1001.47
2019-05-25T05:40:01.522Z,1001.43
2019-05-25T05:45:01.662Z,1001.46
2019-05-25T05:50:01.753Z,1001.47
2019-05-25T05:55:01.969Z,1001.51
2019-05-25T06:00:02.177Z,1001.45
2019-05-25T06:05:01.444Z,1001.56
2019-05-25T06:10:01.623Z,1001.6
2019-05-25T06:15:01.755Z,1001.61
2019-05-25T06:20:01.914Z,1001.71
2019-05-25T06:25:02.062Z,1001.74
2019-05-25T06:30:01.194Z,1001.64
2019-05-25T06:35:01.367Z,1001.7
2019-05-25T06:40:01.596Z,1001.77
2019-05-25T06:45:01.739Z,1001.74
2019-05-25T06:50:01.872Z,1001.76
2019-05-25T06:55:02.017Z,1001.75
2019-05-25T07:00:01.184Z,1001.74
2019-05-25T07:05:01.347Z,1001.75
2019-05-25T07:10:01.561Z,1001.81
2019-05-25T07:15:01.711Z,1001.78
2019-05-25T07:20:01.970Z,1001.76
2019-05-25T07:25:02.141Z,1001.79
2019-05-25T07:30:01.266Z,1001.75
2019-05-25T07:35:01.388Z,1001.79
2019-05-25T07:40:01.515Z,1001.79
2019-05-25T07:45:01.651Z,1001.78
2019-05-25T07:50:01.807Z,1001.83
2019-05-25T07:55:01.944Z,1001.84
2019-05-25T08:00:02.068Z,1001.89
2019-05-25T08:05:01.227Z,1002
2019-05-25T08:10:01.355Z,1001.92
2019-05-25T08:15:01.522Z,1001.92
2019-05-25T08:20:01.728Z,1001.86
2019-05-25T08:25:01.838Z,1001.91
2019-05-25T08:30:01.964Z,1001.98
2019-05-25T08:35:01.124Z,1002.02
2019-05-25T08:40:01.314Z,1002.07
2019-05-25T08:45:01.442Z,1002
2019-05-25T08:50:01.572Z,1002.09
2019-05-25T08:55:01.701Z,1002.04
2019-05-25T09:00:01.930Z,1002.14
2019-05-25T09:05:02.048Z,1002.09
2019-05-25T09:10:01.176Z,1002.12
2019-05-25T09:15:01.304Z,1002.14
2019-05-25T09:20:01.501Z,1002.15
2019-05-25T09:25:01.596Z,1002.11
2019-05-25T09:30:01.707Z,1002.11
2019-05-25T09:35:01.869Z,1002.09
2019-05-25T09:40:02.057Z,1002
2019-05-25T09:45:01.193Z,1002.08
2019-05-25T09:50:01.689Z,1002.03
2019-05-25T09:55:01.873Z,1002.06
2019-05-25T10:00:02.062Z,1002.01
2019-05-25T10:05:01.216Z,1001.98
2019-05-25T10:10:01.348Z,1002.01
2019-05-25T10:15:01.479Z,1002.03
2019-05-25T10:20:01.646Z,1002.04
2019-05-25T10:25:01.783Z,1002.1
2019-05-25T10:30:01.917Z,1002.1
2019-05-25T10:35:02.093Z,1002
2019-05-25T10:40:01.230Z,1001.94
2019-05-25T10:45:01.359Z,1001.98
2019-05-25T10:50:01.491Z,1001.92
2019-05-25T10:55:02.095Z,1001.9
2019-05-25T11:00:01.302Z,1001.96
2019-05-25T11:05:01.472Z,1001.9
2019-05-25T11:10:01.607Z,1001.76
2019-05-25T11:15:01.764Z,1001.78
2019-05-25T11:20:01.902Z,1001.78
2019-05-25T11:25:02.013Z,1001.88
2019-05-25T11:30:09.115Z,1001.79
2019-05-25T11:35:01.930Z,1001.76
2019-05-25T11:40:02.090Z,1001.72
2019-05-25T11:45:01.219Z,1001.74
2019-05-25T11:50:01.347Z,1001.75
2019-05-25T11:55:01.536Z,1001.69
2019-05-25T12:00:01.681Z,1001.71
2019-05-25T12:05:01.800Z,1001.68
2019-05-25T12:10:02.098Z,1001.63
2019-05-25T12:15:01.431Z,1001.62
2019-05-25T12:20:01.581Z,1001.54
2019-05-25T12:25:01.694Z,1001.4
2019-05-25T12:30:01.828Z,1001.45
2019-05-25T12:35:02.044Z,1001.46
2019-05-25T12:40:01.174Z,1001.38
2019-05-25T12:45:01.348Z,1001.38
2019-05-25T12:50:01.470Z,1001.39
2019-05-25T12:55:01.625Z,1001.4
2019-05-25T13:00:15.065Z,1001.4
2019-05-25T13:05:01.435Z,1001.29
2019-05-25T13:10:01.578Z,1001.37
2019-05-25T13:15:01.700Z,1001.31
2019-05-25T13:20:01.890Z,1001.32
2019-05-25T13:25:01.197Z,1001.27
2019-05-25T13:30:03.348Z,1001.21
2019-05-25T13:35:01.755Z,1001.22
2019-05-25T13:40:01.916Z,1001.25
2019-05-25T13:45:02.054Z,1001.26
2019-05-25T13:50:01.255Z,1001.24
2019-05-25T13:55:01.391Z,1001.24
2019-05-25T14:00:01.549Z,1001.21
2019-05-25T14:05:01.682Z,1001.2
2019-05-25T14:10:01.843Z,1001.17
2019-05-25T14:15:02.297Z,1001.12
2019-05-25T14:20:01.586Z,1001.05
2019-05-25T14:25:01.815Z,1001.11
2019-05-25T14:30:02.033Z,1001
2019-05-25T14:35:01.219Z,1001.04
2019-05-25T14:40:01.308Z,1001.03
2019-05-25T14:45:01.630Z,1001.03
2019-05-25T14:50:01.812Z,1000.94
2019-05-25T14:55:02.079Z,1000.95
2019-05-25T15:00:01.246Z,1000.88
2019-05-25T15:05:01.362Z,1000.91
2019-05-25T15:10:01.492Z,1000.89
2019-05-25T15:15:01.616Z,1000.84
2019-05-25T15:20:01.761Z,1000.87
2019-05-25T15:25:01.891Z,1000.83
2019-05-25T15:30:02.023Z,1000.79
2019-05-25T15:35:01.202Z,1000.77
2019-05-25T15:40:01.306Z,1000.81
2019-05-25T15:45:01.405Z,1000.82
2019-05-25T15:50:01.554Z,1000.93
2019-05-25T15:55:01.725Z,1000.91
2019-05-25T16:00:01.910Z,1000.84
2019-05-25T16:05:02.016Z,1000.83
2019-05-25T16:10:01.147Z,1000.9
2019-05-25T16:15:01.323Z,1000.87
2019-05-25T16:20:01.492Z,1000.86
2019-05-25T16:25:01.624Z,1000.78
2019-05-25T16:30:01.737Z,1000.79
2019-05-25T16:35:01.998Z,1000.74
2019-05-25T16:40:01.240Z,1000.77
2019-05-25T16:45:05.352Z,1000.73
2019-05-25T16:50:02.012Z,1000.71
2019-05-25T16:55:01.232Z,1000.72
2019-05-25T17:00:01.380Z,1000.73
2019-05-25T17:05:01.532Z,1000.73
2019-05-25T17:10:01.666Z,1000.75
2019-05-25T17:15:01.821Z,1000.75
2019-05-25T17:20:01.958Z,1000.79
2019-05-25T17:25:02.056Z,1000.82
2019-05-25T17:30:01.192Z,1000.78
2019-05-25T17:35:01.334Z,1000.82
2019-05-25T17:40:01.490Z,1000.87
2019-05-25T17:45:01.644Z,1000.95
2019-05-25T17:50:01.792Z,1000.93
2019-05-25T17:55:01.945Z,1000.88
2019-05-25T18:00:02.086Z,1000.84
2019-05-25T18:05:01.244Z,1000.87
2019-05-25T18:10:01.374Z,1000.85
2019-05-25T18:15:01.561Z,1000.89
2019-05-25T18:20:01.705Z,1000.99
2019-05-25T18:25:01.811Z,1001.05
2019-05-25T18:30:01.949Z,1001.03
2019-05-25T18:35:01.183Z,1001.04
2019-05-25T18:40:01.330Z,1001.05
2019-05-25T18:45:01.491Z,1001.08
2019-05-25T18:50:01.678Z,1001.13
2019-05-25T18:55:01.832Z,1001.14
2019-05-25T19:00:01.965Z,1001.18
2019-05-25T19:05:01.124Z,1001.15
2019-05-25T19:10:01.251Z,1001.07
2019-05-25T19:15:01.446Z,1001.18
2019-05-25T19:20:01.615Z,1001.2
2019-05-25T19:25:01.742Z,1001.19
2019-05-25T19:30:01.881Z,1001.18
2019-05-25T19:35:02.070Z,1001.2
2019-05-25T19:40:07.891Z,1001.25
2019-05-25T19:45:01.161Z,1001.27
2019-05-25T19:50:04.864Z,1001.29
2019-05-25T19:55:01.504Z,1001.39
2019-05-25T20:00:01.731Z,1001.41
2019-05-25T20:05:15.176Z,1001.47
2019-05-25T20:10:01.778Z,1001.61
2019-05-25T20:15:01.179Z,1001.61
2019-05-25T20:20:01.320Z,1001.64
2019-05-25T20:25:01.467Z,1001.71
2019-05-25T20:30:01.600Z,1001.7
2019-05-25T20:35:01.751Z,1001.78
2019-05-25T20:40:01.997Z,1001.74
2019-05-25T20:45:01.246Z,1001.77
2019-05-25T20:50:01.467Z,1001.75
2019-05-25T20:55:01.652Z,1001.81
2019-05-25T21:00:01.780Z,1001.83
2019-05-25T21:05:01.903Z,1001.81
2019-05-25T21:10:02.067Z,1001.84
2019-05-25T21:15:01.237Z,1001.89
2019-05-25T21:20:01.342Z,1001.88
2019-05-25T21:25:05.749Z,1001.82
2019-05-25T21:30:01.348Z,1001.88
2019-05-25T21:35:01.519Z,1001.77
2019-05-25T21:40:01.630Z,1001.78
2019-05-25T21:45:01.764Z,1001.72
2019-05-25T21:50:01.881Z,1001.78
2019-05-25T21:55:02.035Z,1001.82
2019-05-25T22:00:01.227Z,1001.78
2019-05-25T22:05:01.411Z,1001.78
2019-05-25T22:10:01.643Z,1001.76
2019-05-25T22:15:01.848Z,1001.73
2019-05-25T22:20:01.985Z,1001.75
2019-05-25T22:25:02.081Z,1001.73
2019-05-25T22:30:01.212Z,1001.74
2019-05-25T22:35:01.391Z,1001.71
2019-05-25T22:40:01.538Z,1001.71
2019-05-25T22:45:01.725Z,1001.66
2019-05-25T22:50:01.865Z,1001.62
2019-05-25T22:55:02.252Z,1001.56
2019-05-25T23:00:01.488Z,1001.55
2019-05-25T23:05:01.594Z,1001.49
2019-05-25T23:10:01.718Z,1001.47
2019-05-25T23:15:01.869Z,1001.45
2019-05-25T23:20:02.043Z,1001.42
2019-05-25T23:25:01.251Z,1001.4
2019-05-25T23:30:01.381Z,1001.39
2019-05-25T23:35:01.551Z,1001.39
2019-05-25T23:40:01.652Z,1001.37
2019-05-25T23:45:01.784Z,1001.31
2019-05-25T23:50:01.942Z,1001.3
2019-05-25T23:55:04.951Z,1001.24
